logo dgac
Lunes 20 de Mayo del 2019
Buscar por aerodromo o helipuerto
Ingrese nombre de aeródromo, localidad o designador OACI:
METAR del 20-05-2019 a las 13:00 UTC
METAR SCMK 201300Z 20008KT CAVOK 07/03 Q1029
Viento: dirección 200 grados, velocidad 8 nudos
Visibilidad: 10 km o más,
    sin nubes bajo los 5.000 pies o bajo del MSA (Mínimo de Seguridad del Aeródromo),
    sin cumulonimbus, y sin fenómenos de tiempo significativo en el aeródromo o alrededores
Temperatura: 7 °C
Rocío: 3 °C
Humedad_relativa: 76%
Presión: 1029 hPa
METAR del 20-05-2019 a las 13:00 UTC
METAR SCMK 201300Z 20008KT CAVOK 07/03 Q1029
Viento: dirección 200 grados, velocidad 8 nudos
Visibilidad: 10 km o más,
    sin nubes bajo los 5.000 pies o bajo del MSA (Mínimo de Seguridad del Aeródromo),
    sin cumulonimbus, y sin fenómenos de tiempo significativo en el aeródromo o alrededores
Temperatura: 7 °C
Rocío: 3 °C
Humedad_relativa: 76%
Presión: 1029 hPa